createdAt,value
2019-03-29T09:50:58.640Z,31.4580
2019-03-29T09:51:00.942Z,30.8827
2019-03-29T09:51:03.166Z,30.7942
2019-03-29T09:51:05.490Z,30.8125
2019-03-29T09:51:07.772Z,30.7958
2019-03-29T09:51:10.016Z,30.7439
2019-03-29T09:51:12.248Z,30.7546
2019-03-29T09:51:14.544Z,30.7134
2019-03-29T09:51:17.621Z,30.8003
2019-03-29T09:51:19.845Z,30.8461
2019-03-29T09:51:22.061Z,30.8629
2019-03-29T09:51:24.289Z,30.8049
2019-03-29T09:51:26.517Z,30.8049
2019-03-29T09:51:29.572Z,30.7713
2019-03-29T09:51:31.927Z,30.8263
2019-03-29T09:51:36.032Z,30.7713
2019-03-29T09:51:38.452Z,30.8583
2019-03-29T09:51:40.677Z,30.8995
2019-03-29T09:51:42.905Z,30.8873
2019-03-29T09:51:45.133Z,30.8446
2019-03-29T09:51:47.358Z,30.8446
2019-03-29T09:51:49.581Z,30.8125
2019-03-29T09:51:51.807Z,30.8446
2019-03-29T09:52:23.754Z,32.2148
2019-03-29T09:52:25.972Z,30.9834
2019-03-29T09:52:28.200Z,30.9178
2019-03-29T09:52:30.424Z,31.0826
2019-03-29T09:52:32.658Z,31.0826
2019-03-29T09:52:34.877Z,31.0933
2019-03-29T09:52:37.094Z,31.0521
2019-03-29T09:52:39.319Z,30.9468
2019-03-29T09:53:00.914Z,30.8721
2019-03-29T09:53:03.731Z,30.7485
2019-03-29T09:53:05.975Z,30.8537
2019-03-29T09:53:08.217Z,30.9133
2019-03-29T09:53:10.452Z,30.9834
2019-03-29T09:53:12.682Z,31.0414
2019-03-29T09:53:14.936Z,31.0552
2019-03-29T09:53:17.175Z,31.0597
2019-03-29T09:53:19.405Z,30.9834
2019-03-29T09:53:21.649Z,31.0155
2019-03-29T09:53:23.970Z,30.9773
2019-03-29T09:53:26.184Z,30.9453
2019-03-29T09:53:28.400Z,30.8446
2019-03-29T09:53:45.088Z,30.9377
2019-03-29T09:53:53.450Z,30.7759
2019-03-29T09:54:15.372Z,30.8232
2019-03-29T09:54:23.669Z,30.9514
2019-03-29T09:54:31.665Z,31.0780
2019-03-29T09:54:39.672Z,31.0658
2019-03-29T09:54:47.656Z,31.1650
2019-03-29T09:54:55.676Z,31.1803
2019-03-29T09:55:03.678Z,31.1971
2019-03-29T09:55:11.669Z,31.0826
2019-03-29T09:55:19.719Z,31.1238
2019-03-29T09:55:27.708Z,31.2261
2019-03-29T09:55:35.659Z,31.1711
2019-03-29T09:55:45.711Z,31.0979
2019-03-29T09:55:53.705Z,30.9743
2019-03-29T09:56:01.656Z,30.9194
2019-03-29T09:56:17.298Z,30.7591
2019-03-29T09:56:37.955Z,33.1899
2019-03-29T09:56:39.793Z,31.0475
2019-03-29T09:56:48.694Z,30.8492
2019-03-29T09:56:57.699Z,30.7088
2019-03-29T09:57:09.691Z,30.7912
2019-03-29T09:57:18.683Z,30.9636
2019-03-29T09:57:37.297Z,30.9056
2019-03-29T09:57:42.695Z,32.1080
2019-03-29T09:57:51.684Z,37.1572
2019-03-29T09:58:00.688Z,32.6497
2019-03-29T09:58:09.688Z,30.8324
2019-03-29T09:58:18.684Z,30.5669
2019-03-29T09:58:27.793Z,30.5852
2019-03-29T09:58:36.702Z,30.6081
2019-03-29T09:58:45.692Z,30.6706
2019-03-29T09:58:54.704Z,30.6722
2019-03-29T09:59:03.688Z,30.5119
2019-03-29T09:59:14.953Z,30.5257
2019-03-29T09:59:25.672Z,30.4784
2019-03-29T09:59:34.700Z,30.3655
2019-03-29T09:59:43.697Z,30.4189
2019-03-29T09:59:52.699Z,30.4067
2019-03-29T10:00:01.699Z,30.5806
2019-03-29T10:00:19.314Z,30.7988
2019-03-29T10:00:25.690Z,30.9285
2019-03-29T10:00:34.677Z,30.8690
2019-03-29T10:00:43.687Z,30.6798
2019-03-29T10:00:52.685Z,30.6538
2019-03-29T10:01:01.680Z,30.5943
2019-03-29T10:01:10.712Z,30.7271
2019-03-29T10:01:20.902Z,30.5943
2019-03-29T10:01:29.783Z,30.4936
2019-03-29T10:01:38.701Z,30.4051
2019-03-29T10:01:47.689Z,30.3883
2019-03-29T10:01:56.690Z,30.5104
2019-03-29T10:02:05.695Z,30.5653
2019-03-29T10:02:14.689Z,30.5699
2019-03-29T10:02:23.679Z,30.4967
2019-03-29T10:02:32.684Z,30.4646
2019-03-29T10:02:41.684Z,30.3746
2019-03-29T10:02:50.692Z,30.4479
2019-03-29T10:02:59.694Z,30.4921
2019-03-29T10:03:08.682Z,30.3288
2019-03-29T10:03:17.693Z,30.3273
2019-03-29T10:03:26.691Z,30.5333
2019-03-29T10:03:35.715Z,30.3700
2019-03-29T10:03:44.686Z,30.3273
2019-03-29T10:03:53.678Z,30.2510
2019-03-29T10:04:02.682Z,30.2220
2019-03-29T10:04:11.671Z,30.2510
2019-03-29T10:04:20.680Z,30.2510
2019-03-29T10:04:29.707Z,30.2632
2019-03-29T10:04:38.674Z,30.2647
2019-03-29T10:04:47.693Z,30.4097
2019-03-29T10:05:20.125Z,30.5058
2019-03-29T10:05:31.120Z,30.4982
2019-03-29T10:05:38.957Z,30.4387
2019-03-29T10:05:46.960Z,30.4112
2019-03-29T10:05:54.965Z,30.4463
2019-03-29T10:06:02.924Z,30.5486
2019-03-29T10:06:10.934Z,30.4006
2019-03-29T10:06:18.963Z,30.4433
2019-03-29T10:06:26.955Z,30.4143
2019-03-29T10:06:34.965Z,30.4616
2019-03-29T10:06:42.975Z,30.4463
2019-03-29T10:06:50.921Z,30.3838
2019-03-29T10:06:58.930Z,30.4112
2019-03-29T10:07:06.975Z,30.3731
2019-03-29T10:07:14.947Z,30.3563
2019-03-29T10:07:22.954Z,30.3136
2019-03-29T10:07:30.962Z,30.4021
2019-03-29T10:07:38.966Z,30.4158
2019-03-29T10:07:46.958Z,30.5150
2019-03-29T10:07:54.941Z,30.4891
2019-03-29T10:08:02.936Z,30.4891
2019-03-29T10:08:10.952Z,30.5577
2019-03-29T10:08:18.932Z,30.6340
2019-03-29T10:08:26.931Z,31.2535
2019-03-29T10:08:34.943Z,32.3278
2019-03-29T10:08:42.962Z,32.2316
2019-03-29T10:08:53.240Z,32.2499
2019-03-29T10:09:00.939Z,32.0592
2019-03-29T10:09:08.928Z,31.6197
2019-03-29T10:09:16.934Z,31.7281
2019-03-29T10:09:24.919Z,31.7708
2019-03-29T10:09:32.924Z,31.8013
2019-03-29T10:09:40.942Z,31.8074
2019-03-29T10:09:48.960Z,31.7891
2019-03-29T10:09:56.916Z,31.7784
2019-03-29T10:10:04.985Z,31.8074
2019-03-29T10:10:12.971Z,31.7113
2019-03-29T10:10:21.691Z,31.6686
2019-03-29T10:10:36.436Z,31.5373
2019-03-29T10:11:40.741Z,31.3802
2019-03-29T10:11:40.741Z,31.5358
2019-03-29T10:11:50.057Z,31.3069
2019-03-29T10:11:58.963Z,31.1604
2019-03-29T10:12:07.942Z,31.0338
2019-03-29T10:12:16.944Z,30.9773
2019-03-29T10:12:25.945Z,30.9087
2019-03-29T10:12:43.181Z,30.8309
2019-03-29T10:13:48.822Z,30.4433
2019-03-29T10:13:48.822Z,30.7546
2019-03-29T10:13:57.955Z,30.3334
2019-03-29T10:14:06.941Z,30.3105
2019-03-29T10:14:15.948Z,30.3090
2019-03-29T10:14:24.964Z,30.2922
2019-03-29T10:14:33.952Z,30.2358
2019-03-29T10:14:42.963Z,30.2510
2019-03-29T10:14:51.973Z,30.2220
2019-03-29T10:15:00.964Z,30.1946
2019-03-29T10:15:09.941Z,30.2373
2019-03-29T10:15:18.954Z,30.2632
2019-03-29T10:16:33.206Z,30.0450
2019-03-29T10:16:33.206Z,30.2098
2019-03-29T10:16:41.993Z,30.0725
2019-03-29T10:16:51.737Z,29.9474
2019-03-29T10:17:01.634Z,29.8604
2019-03-29T10:17:12.162Z,29.8466
2019-03-29T10:17:47.928Z,29.9611
2019-03-29T10:17:56.992Z,29.8924
2019-03-29T10:18:05.979Z,29.7932
2019-03-29T10:18:14.961Z,29.7612
2019-03-29T10:18:23.972Z,29.8192
2019-03-29T10:18:32.991Z,29.8054
2019-03-29T10:18:41.962Z,29.7749
2019-03-29T10:18:50.970Z,29.7642
2019-03-29T10:18:59.971Z,29.6925
2019-03-29T10:19:08.976Z,29.7200
2019-03-29T10:20:07.352Z,29.5506
2019-03-29T10:20:07.352Z,29.6330
2019-03-29T10:21:08.690Z,29.4713
2019-03-29T10:21:08.690Z,29.5628
2019-03-29T10:21:18.007Z,29.4575
2019-03-29T10:21:28.879Z,29.4255
2019-03-29T10:23:03.421Z,28.8045
2019-03-29T10:23:03.421Z,29.4255
2019-03-29T10:23:13.248Z,28.3955
2019-03-29T11:13:40.983Z,32.1508
2019-03-29T11:13:49.458Z,31.1192
2019-03-29T11:13:57.420Z,31.2566
2019-03-29T11:14:54.060Z,31.1254
2019-03-29T11:15:01.464Z,30.8858
2019-03-29T11:15:09.410Z,30.9178
2019-03-29T11:15:17.418Z,31.0979
2019-03-29T11:15:25.405Z,31.5221
2019-03-29T11:15:52.579Z,31.7968
2019-03-29T11:16:00.473Z,31.1879
2019-03-29T11:16:08.432Z,31.1162
2019-03-29T11:16:16.429Z,31.6884
2019-03-29T11:16:24.416Z,31.4412
2019-03-29T11:16:32.438Z,30.9880
2019-03-29T11:16:40.433Z,30.8583
2019-03-29T11:16:48.427Z,30.6447
2019-03-29T11:16:56.432Z,30.8598
2019-03-29T11:17:04.457Z,32.6162
2019-03-29T11:17:12.427Z,31.6197
2019-03-29T11:17:20.427Z,31.1376
2019-03-29T11:17:28.428Z,30.9926
2019-03-29T11:17:36.416Z,32.1508
2019-03-29T11:17:44.435Z,31.5358
2019-03-29T11:17:52.432Z,32.6390
2019-03-29T11:18:00.435Z,31.8349
2019-03-29T11:18:08.437Z,30.9178
2019-03-29T11:18:46.033Z,31.0048
2019-03-29T11:18:53.435Z,30.7988
2019-03-29T11:19:01.397Z,31.0613
2019-03-29T11:19:09.405Z,30.8232
2019-03-29T11:19:17.414Z,30.6203
2019-03-29T11:19:25.422Z,30.5333
2019-03-29T11:19:33.415Z,30.5425
2019-03-29T11:19:41.402Z,30.5425
2019-03-29T11:19:49.415Z,30.5379
2019-03-29T11:19:57.431Z,30.9499
2019-03-29T11:20:05.402Z,31.1101
2019-03-29T11:20:13.418Z,31.0277
2019-03-29T11:20:21.395Z,30.9102
2019-03-29T11:20:29.384Z,31.0750
2019-03-29T11:20:37.428Z,30.5806
2019-03-29T11:20:45.444Z,30.5074
2019-03-29T11:20:53.424Z,30.7271
2019-03-29T11:21:01.446Z,30.6935
2019-03-29T11:21:09.411Z,30.9407
2019-03-29T11:21:17.395Z,34.2321
2019-03-29T11:21:25.404Z,31.1620
2019-03-29T11:21:33.420Z,30.8324
2019-03-29T11:21:42.455Z,29.3950
2019-03-29T11:21:59.355Z,28.0491
2019-03-29T11:22:08.524Z,28.8762
2019-03-29T11:22:17.518Z,28.0842
2019-03-29T11:22:28.552Z,32.1553
2019-03-29T11:22:37.465Z,37.8683
2019-03-29T11:22:47.678Z,38.6160
2019-03-29T11:22:57.319Z,38.4497
2019-03-29T11:23:06.746Z,39.1501
2019-03-29T11:23:15.745Z,35.9091
2019-03-29T11:23:26.260Z,40.6058
2019-03-29T11:23:36.431Z,39.3149
2019-03-29T11:23:46.662Z,34.5571
2019-03-29T11:23:57.321Z,35.5093
2019-03-29T11:24:10.813Z,40.6607
2019-03-29T11:24:22.198Z,33.9437
2019-03-29T11:24:37.195Z,30.5348
2019-03-29T11:25:03.305Z,30.0816
2019-03-29T11:25:28.848Z,29.2424
2019-03-29T11:25:38.822Z,29.3492
2019-03-29T11:25:49.457Z,32.6024
2019-03-29T11:25:59.329Z,33.0571
2019-03-29T11:26:18.817Z,34.3664
2019-03-29T11:26:38.375Z,37.0748
2019-03-29T11:27:10.830Z,34.1054
2019-03-29T11:27:23.306Z,39.8749
2019-03-29T11:27:34.315Z,39.6674
2019-03-29T11:27:46.449Z,39.7375
2019-03-29T11:27:58.090Z,40.7126
2019-03-29T11:28:18.651Z,40.5280
2019-03-29T11:28:28.650Z,40.6210
2019-03-29T11:28:39.313Z,43.9612
2019-03-29T11:28:50.916Z,40.7156
2019-03-29T11:29:02.103Z,41.4710
2019-03-29T11:29:19.356Z,40.1083
2019-03-29T11:35:36.890Z,22.9664
2019-03-29T11:35:47.150Z,20.2029
2019-03-29T11:35:56.296Z,19.0402
2019-03-29T11:36:05.895Z,18.7137
2019-03-29T11:36:14.253Z,17.5967
2019-03-29T11:36:23.282Z,17.6394
2019-03-29T11:36:32.890Z,19.2264
2019-03-29T11:36:42.065Z,20.7233
2019-03-29T11:36:52.787Z,21.8830
2019-03-29T11:37:02.962Z,23.4379
2019-03-29T11:37:12.008Z,23.5935
2019-03-29T11:37:22.421Z,23.6988
2019-03-29T11:37:31.281Z,23.8727
2019-03-29T11:37:40.339Z,24.6509
2019-03-29T11:37:49.986Z,24.9500
2019-03-29T11:38:03.385Z,24.2817
2019-03-29T11:38:13.398Z,25.3101
2019-03-29T11:38:23.112Z,25.4612
2019-03-29T11:38:33.041Z,26.1311
2019-03-29T11:38:42.949Z,28.6397
2019-03-29T11:38:51.927Z,27.3564
2019-03-29T11:39:01.515Z,28.0491
2019-03-29T11:39:12.897Z,29.6559
2019-03-29T11:39:23.042Z,29.7002
2019-03-29T11:39:32.997Z,29.2149
2019-03-29T11:39:42.477Z,29.2943
2019-03-29T11:39:51.978Z,29.0425
2019-03-29T11:40:00.896Z,29.0044
2019-03-29T11:40:11.085Z,28.4657
2019-03-29T11:40:20.281Z,30.0343
2019-03-29T11:40:29.423Z,28.8731
2019-03-29T11:40:38.292Z,29.3263
2019-03-29T11:40:47.317Z,29.3812
2019-03-29T11:40:56.348Z,28.4703
2019-03-29T11:41:05.285Z,29.0089
2019-03-29T11:41:14.272Z,28.5481
2019-03-29T11:41:23.352Z,28.6519
2019-03-29T11:41:32.331Z,27.4296
2019-03-29T11:41:41.268Z,27.6951
2019-03-29T11:41:50.271Z,29.4575
2019-03-29T11:42:03.196Z,29.7414
2019-03-29T11:42:13.779Z,28.4733
2019-03-29T11:42:24.285Z,28.3726
2019-03-29T11:42:33.298Z,47.3991
2019-03-29T11:42:42.276Z,31.5145
2019-03-29T11:42:51.275Z,28.6122
2019-03-29T11:43:00.254Z,27.6371
2019-03-29T11:43:09.260Z,27.0054
2019-03-29T11:43:26.522Z,26.5843
2019-03-29T11:43:33.311Z,26.9398
2019-03-29T11:43:42.264Z,26.2577
2019-03-29T11:43:51.254Z,26.3767
2019-03-29T11:44:00.325Z,26.9047
2019-03-29T11:44:09.281Z,26.0349
2019-03-29T11:44:18.969Z,25.9754
2019-03-29T11:44:31.690Z,26.4286
2019-03-29T11:44:43.886Z,27.1962
2019-03-29T11:44:55.063Z,27.4266
2019-03-29T11:45:05.231Z,26.4775
2019-03-29T11:45:15.512Z,25.9571
2019-03-29T11:45:24.489Z,26.8803
2019-03-29T11:45:33.409Z,27.1473
2019-03-29T11:45:43.495Z,27.0680
2019-03-29T11:45:52.297Z,27.8889
2019-03-29T11:46:01.280Z,27.2663
2019-03-29T11:46:10.255Z,26.7613
2019-03-29T11:46:19.298Z,27.1794
2019-03-29T11:46:28.275Z,27.8691
2019-03-29T11:58:52.248Z,28.9921
2019-03-29T11:59:00.546Z,28.9189
2019-03-29T14:09:44.107Z,26.1982
